createdAt,value
2023-05-24T00:00:45.094Z,101635.75
2023-05-24T00:03:15.638Z,101632.47
2023-05-24T00:05:46.911Z,101641.00
2023-05-24T00:08:16.161Z,101654.34
2023-05-24T00:10:44.513Z,101639.81
2023-05-24T00:13:12.887Z,101645.91
2023-05-24T00:15:42.734Z,101647.31
2023-05-24T00:18:11.132Z,101651.13
2023-05-24T00:20:39.501Z,101653.38
2023-05-24T00:23:08.078Z,101655.66
2023-05-24T00:25:36.350Z,101652.22
2023-05-24T00:28:04.504Z,101643.69
2023-05-24T00:30:32.657Z,101649.34
2023-05-24T00:33:02.342Z,101644.22
2023-05-24T00:35:31.824Z,101660.94
2023-05-24T00:37:59.982Z,101654.84
2023-05-24T00:40:28.213Z,101656.53
2023-05-24T00:42:56.427Z,101657.81
2023-05-24T00:45:24.687Z,101661.50
2023-05-24T00:47:52.875Z,101660.75
2023-05-24T00:50:22.560Z,101651.09
2023-05-24T00:52:51.529Z,101658.31
2023-05-24T00:55:19.662Z,101649.50
2023-05-24T00:57:48.099Z,101640.09
2023-05-24T01:00:17.276Z,101631.53
2023-05-24T01:02:48.384Z,101634.63
2023-05-24T01:05:17.599Z,101635.75
2023-05-24T01:07:55.707Z,101635.88
2023-05-24T01:10:31.927Z,101638.84
2023-05-24T01:13:03.312Z,101655.06
2023-05-24T01:15:35.003Z,101653.59
2023-05-24T01:18:06.486Z,101660.25
2023-05-24T01:20:35.416Z,101657.22
2023-05-24T01:23:14.984Z,101665.69
2023-05-24T01:25:58.157Z,101660.28
2023-05-24T01:28:28.638Z,101655.16
2023-05-24T01:30:57.118Z,101655.97
2023-05-24T01:33:25.986Z,101653.25
2023-05-24T01:35:54.476Z,101653.03
2023-05-24T01:38:22.625Z,101663.84
2023-05-24T01:40:54.420Z,101665.34
2023-05-24T01:43:26.830Z,101657.25
2023-05-24T01:46:04.501Z,101654.06
2023-05-24T01:48:35.934Z,101655.53
2023-05-24T01:51:07.071Z,101653.34
2023-05-24T01:53:35.959Z,101658.00
2023-05-24T01:56:06.535Z,101655.56
2023-05-24T01:58:35.257Z,101659.00
2023-05-24T02:01:06.586Z,101662.16
2023-05-24T02:03:34.869Z,101665.59
2023-05-24T02:06:04.137Z,101676.13
2023-05-24T02:08:33.058Z,101673.44
2023-05-24T02:11:01.383Z,101678.06
2023-05-24T02:13:29.643Z,101666.69
2023-05-24T02:15:58.177Z,101670.50
2023-05-24T02:18:34.780Z,101671.03
2023-05-24T02:21:03.529Z,101675.91
2023-05-24T02:23:32.105Z,101678.50
2023-05-24T02:26:01.535Z,101679.09
2023-05-24T02:28:32.352Z,101671.75
2023-05-24T02:31:01.359Z,101679.81
2023-05-24T02:33:31.112Z,101682.66
2023-05-24T02:35:59.653Z,101671.75
2023-05-24T02:38:28.046Z,101660.94
2023-05-24T02:40:56.294Z,101658.25
2023-05-24T02:43:24.403Z,101670.16
2023-05-24T02:45:52.781Z,101681.31
2023-05-24T02:48:20.936Z,101686.69
2023-05-24T02:50:50.803Z,101674.31
2023-05-24T02:53:19.303Z,101685.22
2023-05-24T02:55:47.580Z,101677.53
2023-05-24T02:58:17.816Z,101675.22
2023-05-24T03:00:48.996Z,101675.09
2023-05-24T03:03:18.965Z,101684.66
2023-05-24T03:05:47.314Z,101682.81
2023-05-24T03:08:17.303Z,101678.66
2023-05-24T03:10:46.107Z,101670.50
2023-05-24T03:13:15.494Z,101673.53
2023-05-24T03:15:44.206Z,101666.06
2023-05-24T03:18:12.554Z,101675.25
2023-05-24T03:20:42.300Z,101691.03
2023-05-24T03:23:11.949Z,101686.03
2023-05-24T03:25:42.390Z,101687.50
2023-05-24T03:28:11.233Z,101686.03
2023-05-24T03:30:39.608Z,101699.25
2023-05-24T03:33:09.224Z,101702.44
2023-05-24T03:35:37.798Z,101695.94
2023-05-24T03:38:05.990Z,101694.59
2023-05-24T03:40:36.827Z,101696.28
2023-05-24T03:43:15.031Z,101690.06
2023-05-24T03:45:53.675Z,101682.94
2023-05-24T03:48:22.064Z,101680.13
2023-05-24T03:50:52.455Z,101674.75
2023-05-24T03:53:23.070Z,101675.00
2023-05-24T03:55:52.057Z,101667.28
2023-05-24T03:58:22.607Z,101671.09
2023-05-24T04:00:51.791Z,101660.81
2023-05-24T04:03:20.436Z,101667.41
2023-05-24T04:05:49.371Z,101670.38
2023-05-24T04:08:17.528Z,101681.59
2023-05-24T04:10:45.876Z,101686.97
2023-05-24T04:13:14.047Z,101686.50
2023-05-24T04:15:43.711Z,101680.63
2023-05-24T04:18:13.097Z,101676.56
2023-05-24T04:20:41.733Z,101674.50
2023-05-24T04:23:11.041Z,101676.44
2023-05-24T04:25:39.170Z,101675.19
2023-05-24T04:28:08.592Z,101680.22
2023-05-24T04:30:37.087Z,101686.69
2023-05-24T04:33:07.042Z,101683.47
2023-05-24T04:35:35.741Z,101694.22
2023-05-24T04:38:04.068Z,101697.94
2023-05-24T04:40:32.271Z,101700.94
2023-05-24T04:43:01.340Z,101695.94
2023-05-24T04:45:30.825Z,101684.44
2023-05-24T04:47:58.955Z,101693.94
2023-05-24T04:50:29.588Z,101692.22
2023-05-24T04:52:57.867Z,101701.25
2023-05-24T04:55:26.220Z,101697.47
2023-05-24T04:57:54.433Z,101708.41
2023-05-24T05:00:22.905Z,101698.41
2023-05-24T05:02:51.680Z,101716.91
2023-05-24T05:05:20.342Z,101715.47
2023-05-24T05:07:50.063Z,101719.44
2023-05-24T05:10:18.268Z,101722.38
2023-05-24T05:12:46.376Z,101713.31
2023-05-24T05:15:14.846Z,101725.66
2023-05-24T05:17:43.285Z,101721.69
2023-05-24T05:20:11.994Z,101728.34
2023-05-24T05:22:40.078Z,101729.31
2023-05-24T05:25:10.690Z,101719.44
2023-05-24T05:27:38.873Z,101716.88
2023-05-24T05:30:08.496Z,101722.41
2023-05-24T05:32:37.905Z,101729.34
2023-05-24T05:35:06.691Z,101727.69
2023-05-24T05:37:34.764Z,101725.72
2023-05-24T05:40:06.607Z,101719.69
2023-05-24T05:42:36.232Z,101719.34
2023-05-24T05:45:04.679Z,101714.63
2023-05-24T05:47:32.899Z,101711.84
2023-05-24T05:50:01.254Z,101712.19
2023-05-24T05:52:29.651Z,101712.31
2023-05-24T05:54:57.768Z,101702.41
2023-05-24T05:57:26.069Z,101713.34
2023-05-24T05:59:55.834Z,101701.09
2023-05-24T06:02:24.068Z,101695.03
2023-05-24T06:04:52.839Z,101688.25
2023-05-24T06:07:21.246Z,101686.91
2023-05-24T06:09:49.730Z,101679.78
2023-05-24T06:12:17.942Z,101674.50
2023-05-24T06:14:48.392Z,101675.66
2023-05-24T06:17:18.673Z,101671.63
2023-05-24T06:19:46.935Z,101669.84
2023-05-24T06:22:15.569Z,101670.19
2023-05-24T06:24:43.935Z,101665.13
2023-05-24T06:27:12.080Z,101664.34
2023-05-24T06:29:40.691Z,101664.41
2023-05-24T06:32:09.211Z,101671.38
2023-05-24T06:34:39.477Z,101670.84
2023-05-24T06:37:10.415Z,101673.34
2023-05-24T06:39:38.901Z,101671.94
2023-05-24T06:42:07.312Z,101674.50
2023-05-24T06:44:38.248Z,101666.53
2023-05-24T06:47:07.029Z,101660.19
2023-05-24T06:49:36.423Z,101665.50
2023-05-24T06:52:07.406Z,101664.13
2023-05-24T06:54:35.603Z,101660.41
2023-05-24T06:57:03.986Z,101666.38
2023-05-24T06:59:32.229Z,101664.69
2023-05-24T07:02:02.788Z,101660.22
2023-05-24T07:04:32.487Z,101665.13
2023-05-24T07:07:06.904Z,101658.06
2023-05-24T07:09:35.108Z,101664.38
2023-05-24T07:12:03.735Z,101656.09
2023-05-24T07:14:32.128Z,101658.44
2023-05-24T07:17:00.412Z,101659.78
2023-05-24T07:19:29.904Z,101665.81
2023-05-24T07:21:58.317Z,101673.53
2023-05-24T07:24:27.956Z,101663.19
2023-05-24T07:26:57.505Z,101671.03
2023-05-24T07:29:26.258Z,101667.41
2023-05-24T07:31:56.260Z,101676.25
2023-05-24T07:34:27.660Z,101672.69
2023-05-24T07:36:56.171Z,101671.88
2023-05-24T07:39:25.352Z,101678.34
2023-05-24T07:41:54.940Z,101676.34
2023-05-24T07:44:24.085Z,101681.78
2023-05-24T07:46:55.190Z,101687.00
2023-05-24T07:49:23.353Z,101692.72
2023-05-24T07:51:52.026Z,101684.09
2023-05-24T07:54:20.252Z,101678.78
2023-05-24T07:56:48.412Z,101685.72
2023-05-24T07:59:18.085Z,101679.84
2023-05-24T08:01:47.845Z,101683.41
2023-05-24T08:04:16.385Z,101690.41
2023-05-24T08:06:46.741Z,101687.19
2023-05-24T08:09:15.168Z,101690.44
2023-05-24T08:11:43.304Z,101692.81
2023-05-24T08:14:11.895Z,101692.25
2023-05-24T08:16:41.672Z,101697.44
2023-05-24T08:19:10.171Z,101698.75
2023-05-24T08:21:38.902Z,101698.16
2023-05-24T08:24:09.290Z,101696.75
2023-05-24T08:26:38.203Z,101703.47
2023-05-24T08:29:06.429Z,101712.00
2023-05-24T08:31:34.696Z,101707.94
2023-05-24T08:34:04.623Z,101700.03
2023-05-24T08:36:32.950Z,101701.66
2023-05-24T08:39:01.287Z,101698.44
2023-05-24T08:41:30.062Z,101707.41
2023-05-24T08:44:01.915Z,101705.53
2023-05-24T08:46:30.371Z,101699.94
2023-05-24T08:48:59.112Z,101703.28
2023-05-24T08:51:29.234Z,101704.31
2023-05-24T08:53:58.790Z,101700.25
2023-05-24T08:56:27.821Z,101697.34
2023-05-24T08:58:56.342Z,101692.72
2023-05-24T09:01:26.573Z,101695.91
2023-05-24T09:03:56.592Z,101701.59
2023-05-24T09:06:25.515Z,101700.13
2023-05-24T09:08:55.531Z,101705.50
2023-05-24T09:11:24.897Z,101711.38
2023-05-24T09:13:55.799Z,101705.34
2023-05-24T09:16:24.489Z,101701.16
2023-05-24T09:18:52.832Z,101698.22
2023-05-24T09:21:21.293Z,101697.78
2023-05-24T09:23:50.610Z,101695.03
2023-05-24T09:26:20.263Z,101696.72
2023-05-24T09:28:49.534Z,101693.25
2023-05-24T09:31:18.795Z,101682.81
2023-05-24T09:33:49.855Z,101691.75
2023-05-24T09:36:18.451Z,101697.94
2023-05-24T09:38:46.608Z,101681.72
2023-05-24T09:41:14.969Z,101688.28
2023-05-24T09:43:50.865Z,101689.28
2023-05-24T09:46:20.200Z,101691.63
2023-05-24T09:48:58.660Z,101695.81
2023-05-24T09:51:27.184Z,101697.59
2023-05-24T09:53:58.211Z,101701.31
2023-05-24T09:56:27.741Z,101698.06
2023-05-24T09:58:58.185Z,101697.69
2023-05-24T10:01:27.056Z,101699.69
2023-05-24T10:03:55.932Z,101695.47
2023-05-24T10:06:24.191Z,101703.56
2023-05-24T10:08:54.485Z,101700.72
2023-05-24T10:11:22.850Z,101699.31
2023-05-24T10:13:51.286Z,101698.16
2023-05-24T10:16:21.024Z,101693.63
2023-05-24T10:18:50.056Z,101687.75
2023-05-24T10:21:19.182Z,101689.09
2023-05-24T10:23:50.480Z,101686.81
2023-05-24T10:26:19.106Z,101686.22
2023-05-24T10:28:49.243Z,101682.88
2023-05-24T10:31:19.594Z,101675.31
2023-05-24T10:33:52.026Z,101668.31
2023-05-24T10:36:20.383Z,101670.41
2023-05-24T10:38:49.087Z,101674.09
2023-05-24T10:41:19.210Z,101680.13
2023-05-24T10:44:00.851Z,101683.72
2023-05-24T10:46:36.110Z,101684.78
2023-05-24T10:49:07.704Z,101691.09
2023-05-24T10:51:37.239Z,101688.66
2023-05-24T10:54:15.920Z,101690.50
2023-05-24T10:56:46.443Z,101691.19
2023-05-24T10:59:37.452Z,101682.25
2023-05-24T11:02:06.587Z,101679.53
2023-05-24T11:04:38.518Z,101685.78
2023-05-24T11:07:09.751Z,101680.31
2023-05-24T11:09:38.468Z,101676.41
2023-05-24T11:12:08.702Z,101668.88
2023-05-24T11:14:39.678Z,101675.19
2023-05-24T11:17:08.346Z,101670.34
2023-05-24T11:19:39.452Z,101671.19
2023-05-24T11:22:08.899Z,101673.41
2023-05-24T11:24:37.143Z,101672.63
2023-05-24T11:27:06.262Z,101674.34
2023-05-24T11:29:37.549Z,101667.22
2023-05-24T11:32:07.916Z,101675.28
2023-05-24T11:34:37.813Z,101661.94
2023-05-24T11:37:07.817Z,101676.13
2023-05-24T11:39:37.464Z,101664.22
2023-05-24T11:42:06.679Z,101668.13
2023-05-24T11:44:38.338Z,101672.00
2023-05-24T11:47:07.960Z,101670.88
2023-05-24T11:49:37.648Z,101664.69
2023-05-24T11:52:06.574Z,101673.16
2023-05-24T11:54:35.177Z,101675.13
2023-05-24T11:57:03.768Z,101667.66
2023-05-24T11:59:32.284Z,101668.81
2023-05-24T12:02:01.986Z,101672.88
2023-05-24T12:04:31.096Z,101673.75
2023-05-24T12:07:01.280Z,101659.91
2023-05-24T12:09:30.337Z,101661.47
2023-05-24T12:11:59.151Z,101671.22
2023-05-24T12:14:31.108Z,101666.31
2023-05-24T12:16:59.852Z,101659.88
2023-05-24T12:19:35.886Z,101667.50
2023-05-24T12:22:08.154Z,101672.72
2023-05-24T12:24:37.042Z,101678.50
2023-05-24T12:27:08.428Z,101677.25
2023-05-24T12:29:45.799Z,101678.59
2023-05-24T12:32:15.202Z,101683.88
2023-05-24T12:34:45.194Z,101674.31
2023-05-24T12:37:14.306Z,101675.25
2023-05-24T12:39:43.772Z,101669.53
2023-05-24T12:42:13.886Z,101674.63
2023-05-24T12:44:42.542Z,101669.97
2023-05-24T12:47:12.747Z,101676.28
2023-05-24T12:49:41.206Z,101664.69
2023-05-24T12:52:09.625Z,101671.03
2023-05-24T12:54:38.014Z,101668.91
2023-05-24T12:57:06.712Z,101663.63
2023-05-24T12:59:35.232Z,101657.94
2023-05-24T13:02:05.787Z,101665.97
2023-05-24T13:04:37.836Z,101660.47
2023-05-24T13:07:06.498Z,101656.66
2023-05-24T13:09:35.915Z,101654.53
2023-05-24T13:12:06.096Z,101658.97
2023-05-24T13:14:34.492Z,101657.50
2023-05-24T13:17:03.295Z,101657.72
2023-05-24T13:19:32.002Z,101655.38
2023-05-24T13:22:02.418Z,101655.75
2023-05-24T13:24:31.747Z,101664.22
2023-05-24T13:27:00.229Z,101671.22
2023-05-24T13:29:39.555Z,101671.00
2023-05-24T13:32:10.921Z,101672.88
2023-05-24T13:34:39.621Z,101668.72
2023-05-24T13:37:09.635Z,101661.50
2023-05-24T13:39:38.686Z,101663.75
2023-05-24T13:42:07.259Z,101671.22
2023-05-24T13:44:36.446Z,101675.91
2023-05-24T13:47:05.024Z,101665.53
2023-05-24T13:49:34.452Z,101667.41
2023-05-24T13:52:04.837Z,101665.34
2023-05-24T13:54:34.862Z,101666.28
2023-05-24T13:57:03.420Z,101665.53
2023-05-24T13:59:34.069Z,101664.78
2023-05-24T14:02:02.481Z,101654.97
2023-05-24T14:04:31.906Z,101656.00
2023-05-24T14:07:00.180Z,101649.34
2023-05-24T14:09:28.553Z,101646.44
2023-05-24T14:11:58.653Z,101650.69
2023-05-24T14:16:58.151Z,101650.69
2023-05-24T14:19:26.600Z,101651.94
2023-05-24T14:21:54.852Z,101648.16
2023-05-24T14:24:24.031Z,101644.75
2023-05-24T14:26:52.173Z,101647.72
2023-05-24T14:29:21.811Z,101640.13
2023-05-24T14:31:50.839Z,101638.84
2023-05-24T14:34:19.606Z,101647.44
2023-05-24T14:36:48.699Z,101653.00
2023-05-24T14:39:17.008Z,101653.44
2023-05-24T14:41:45.770Z,101648.25
2023-05-24T14:44:14.239Z,101643.78
2023-05-24T14:46:44.846Z,101650.09
2023-05-24T14:49:13.302Z,101646.59
2023-05-24T14:51:41.916Z,101639.28
2023-05-24T14:54:13.808Z,101639.78
2023-05-24T14:56:45.803Z,101639.28
2023-05-24T14:59:20.067Z,101642.66
2023-05-24T15:01:58.005Z,101644.56
2023-05-24T15:04:28.318Z,101639.66
2023-05-24T15:06:57.640Z,101635.44
2023-05-24T15:09:28.698Z,101647.13
2023-05-24T15:11:58.915Z,101642.69
2023-05-24T15:14:27.635Z,101644.59
2023-05-24T15:16:57.868Z,101640.34
2023-05-24T15:19:27.931Z,101636.13
2023-05-24T15:21:59.321Z,101637.16
2023-05-24T15:24:31.321Z,101639.03
2023-05-24T15:27:02.604Z,101645.19
2023-05-24T15:29:32.948Z,101637.22
2023-05-24T15:32:05.294Z,101641.66
2023-05-24T15:34:37.646Z,101638.28
2023-05-24T15:37:08.882Z,101633.63
2023-05-24T15:39:40.548Z,101637.81
2023-05-24T15:42:09.556Z,101639.47
2023-05-24T15:44:37.723Z,101643.19
2023-05-24T15:47:08.853Z,101641.75
2023-05-24T15:49:37.775Z,101639.59
2023-05-24T15:52:06.863Z,101643.53
2023-05-24T15:54:35.333Z,101637.19
2023-05-24T15:57:06.329Z,101641.00
2023-05-24T15:59:38.887Z,101643.13
2023-05-24T16:02:10.805Z,101648.63
2023-05-24T16:04:40.590Z,101638.88
2023-05-24T16:07:09.250Z,101648.75
2023-05-24T16:09:40.092Z,101643.44
2023-05-24T16:12:10.678Z,101646.84
2023-05-24T16:14:38.886Z,101639.66
2023-05-24T16:17:12.475Z,101647.44
2023-05-24T16:19:40.844Z,101645.75
2023-05-24T16:22:09.287Z,101646.34
2023-05-24T16:24:43.069Z,101643.72
2023-05-24T16:27:15.340Z,101650.75
2023-05-24T16:29:46.922Z,101647.69
2023-05-24T16:32:18.655Z,101645.50
2023-05-24T16:34:56.106Z,101649.69
2023-05-24T16:37:25.821Z,101654.63
2023-05-24T16:39:54.278Z,101649.47
2023-05-24T16:42:24.862Z,101650.44
2023-05-24T16:44:56.103Z,101653.66
2023-05-24T16:47:32.628Z,101649.25
2023-05-24T16:50:05.501Z,101650.97
2023-05-24T16:52:38.187Z,101642.50
2023-05-24T16:55:13.682Z,101650.63
2023-05-24T16:57:42.916Z,101651.81
2023-05-24T17:00:12.178Z,101643.03
2023-05-24T17:02:41.918Z,101652.97
2023-05-24T17:05:11.150Z,101653.63
2023-05-24T17:07:39.586Z,101656.16
2023-05-24T17:10:08.682Z,101668.03
2023-05-24T17:12:37.472Z,101665.66
2023-05-24T17:15:06.728Z,101662.00
2023-05-24T17:17:35.236Z,101663.06
2023-05-24T17:20:05.720Z,101666.31
2023-05-24T17:22:34.190Z,101673.13
2023-05-24T17:25:02.696Z,101671.81
2023-05-24T17:27:30.980Z,101675.19
2023-05-24T17:29:59.412Z,101687.81
2023-05-24T17:32:28.605Z,101685.56
2023-05-24T17:34:57.275Z,101685.34
2023-05-24T17:37:26.985Z,101685.81
2023-05-24T17:39:55.983Z,101689.59
2023-05-24T17:42:24.999Z,101689.28
2023-05-24T17:44:53.380Z,101691.66
2023-05-24T17:47:21.640Z,101685.78
2023-05-24T17:49:50.031Z,101687.38
2023-05-24T17:52:18.462Z,101691.59
2023-05-24T17:54:49.433Z,101687.31
2023-05-24T17:57:17.921Z,101695.78
2023-05-24T17:59:45.987Z,101696.81
2023-05-24T18:02:14.141Z,101694.13
2023-05-24T18:04:42.561Z,101690.22
2023-05-24T18:07:10.968Z,101701.44
2023-05-24T18:09:39.496Z,101699.25
2023-05-24T18:12:09.456Z,101689.75
2023-05-24T18:14:38.162Z,101697.59
2023-05-24T18:17:06.628Z,101705.78
2023-05-24T18:19:34.920Z,101702.75
2023-05-24T18:22:03.361Z,101697.72
2023-05-24T18:24:32.020Z,101699.66
2023-05-24T18:27:00.430Z,101707.25
2023-05-24T18:29:30.526Z,101700.66
2023-05-24T18:31:58.759Z,101707.31
2023-05-24T18:34:27.089Z,101715.50
2023-05-24T18:36:55.631Z,101713.22
2023-05-24T18:39:24.547Z,101709.81
2023-05-24T18:41:53.794Z,101710.81
2023-05-24T18:44:22.467Z,101706.06
2023-05-24T18:46:55.955Z,101716.50
2023-05-24T18:49:24.579Z,101714.94
2023-05-24T18:51:53.118Z,101711.69
2023-05-24T18:54:22.104Z,101718.88
2023-05-24T18:56:55.062Z,101714.59
2023-05-24T18:59:31.009Z,101723.09
2023-05-24T19:02:02.467Z,101717.81
2023-05-24T19:04:37.058Z,101719.56
2023-05-24T19:07:12.027Z,101708.66
2023-05-24T19:09:45.489Z,101719.41
2023-05-24T19:12:19.460Z,101715.31
2023-05-24T19:14:52.422Z,101715.50
2023-05-24T19:17:28.374Z,101712.59
2023-05-24T19:20:02.281Z,101709.53
2023-05-24T19:22:34.827Z,101712.09
2023-05-24T19:25:07.398Z,101707.31
2023-05-24T19:27:54.820Z,101706.78
2023-05-24T19:30:35.059Z,101700.31
2023-05-24T19:33:12.979Z,101701.31
2023-05-24T19:35:47.956Z,101707.13
2023-05-24T19:38:23.339Z,101711.56
2023-05-24T19:40:57.192Z,101705.25
2023-05-24T19:43:29.187Z,101704.22
2023-05-24T19:46:00.438Z,101692.28
2023-05-24T19:48:36.852Z,101700.66
2023-05-24T19:51:10.356Z,101702.41
2023-05-24T19:53:44.641Z,101706.97
2023-05-24T19:56:17.432Z,101705.78
2023-05-24T19:58:49.523Z,101709.75
2023-05-24T20:01:19.908Z,101719.47
2023-05-24T20:03:51.834Z,101718.09
2023-05-24T20:06:20.143Z,101720.16
2023-05-24T20:08:51.624Z,101726.94
2023-05-24T20:11:24.079Z,101724.38
2023-05-24T20:13:58.651Z,101730.03
2023-05-24T20:16:31.593Z,101724.91
2023-05-24T20:19:03.318Z,101726.44
2023-05-24T20:21:33.499Z,101727.28
2023-05-24T20:24:03.804Z,101731.38
2023-05-24T20:26:34.255Z,101734.44
2023-05-24T20:29:05.851Z,101742.31
2023-05-24T20:31:39.049Z,101742.47
2023-05-24T20:34:09.169Z,101747.06
2023-05-24T20:36:38.452Z,101750.81
2023-05-24T20:39:11.007Z,101753.53
2023-05-24T20:41:39.186Z,101753.19
2023-05-24T20:44:10.129Z,101760.16
2023-05-24T20:46:39.358Z,101766.66
2023-05-24T20:49:09.069Z,101764.78
2023-05-24T20:51:39.233Z,101772.28
2023-05-24T20:54:07.833Z,101772.09
2023-05-24T20:56:38.562Z,101781.81
2023-05-24T20:59:12.226Z,101782.31
2023-05-24T21:01:41.908Z,101780.94
2023-05-24T21:04:14.736Z,101780.09
2023-05-24T21:06:44.718Z,101784.19
2023-05-24T21:09:14.725Z,101784.53
2023-05-24T21:11:47.082Z,101782.81
2023-05-24T21:14:17.438Z,101794.75
2023-05-24T21:16:46.843Z,101797.28
2023-05-24T21:19:16.934Z,101796.25
2023-05-24T21:21:45.102Z,101799.78
2023-05-24T21:24:18.279Z,101789.94
2023-05-24T21:26:49.154Z,101787.38
2023-05-24T21:29:20.121Z,101787.22
2023-05-24T21:31:49.338Z,101798.75
2023-05-24T21:34:19.954Z,101805.22
2023-05-24T21:36:49.969Z,101799.09
2023-05-24T21:39:20.139Z,101801.16
2023-05-24T21:41:53.738Z,101809.47
2023-05-24T21:44:23.910Z,101798.75
2023-05-24T21:46:52.509Z,101801.47
2023-05-24T21:49:26.862Z,101798.19
2023-05-24T21:51:55.903Z,101797.34
2023-05-24T21:54:26.358Z,101799.38
2023-05-24T21:56:59.400Z,101802.09
2023-05-24T21:59:31.831Z,101796.63
2023-05-24T22:02:03.131Z,101794.59
2023-05-24T22:04:32.954Z,101794.41
2023-05-24T22:07:03.167Z,101802.75
2023-05-24T22:09:34.161Z,101799.66
2023-05-24T22:12:02.565Z,101807.50
2023-05-24T22:14:35.291Z,101807.16
2023-05-24T22:17:04.106Z,101807.16
2023-05-24T22:19:41.544Z,101806.09
2023-05-24T22:22:12.922Z,101821.25
2023-05-24T22:24:42.998Z,101822.44
2023-05-24T22:27:16.297Z,101819.72
2023-05-24T22:29:50.999Z,101816.00
2023-05-24T22:32:24.783Z,101814.94
2023-05-24T22:35:00.633Z,101818.50
2023-05-24T22:37:30.809Z,101820.50
2023-05-24T22:39:59.730Z,101820.16
2023-05-24T22:42:29.418Z,101813.72
2023-05-24T22:44:59.872Z,101818.28
2023-05-24T22:47:35.048Z,101821.34
2023-05-24T22:50:12.270Z,101825.06
2023-05-24T22:52:43.028Z,101819.44
2023-05-24T22:55:13.321Z,101823.53
2023-05-24T22:57:46.489Z,101823.69
2023-05-24T23:00:17.843Z,101817.56
2023-05-24T23:02:47.326Z,101828.59
2023-05-24T23:05:18.780Z,101828.22
2023-05-24T23:07:48.772Z,101819.91
2023-05-24T23:10:18.091Z,101821.78
2023-05-24T23:12:46.629Z,101823.97
2023-05-24T23:15:18.510Z,101814.28
2023-05-24T23:17:48.685Z,101827.00
2023-05-24T23:20:18.372Z,101820.31
2023-05-24T23:22:47.062Z,101819.16
2023-05-24T23:25:15.512Z,101819.81
2023-05-24T23:27:43.987Z,101825.25
2023-05-24T23:30:12.356Z,101826.97
2023-05-24T23:32:40.894Z,101816.38
2023-05-24T23:35:09.898Z,101821.81
2023-05-24T23:37:39.945Z,101818.41
2023-05-24T23:40:08.737Z,101823.47
2023-05-24T23:42:37.346Z,101821.09
2023-05-24T23:45:06.190Z,101820.06
2023-05-24T23:47:34.447Z,101821.09
2023-05-24T23:50:02.670Z,101822.13
2023-05-24T23:52:30.810Z,101816.69
2023-05-24T23:55:00.851Z,101824.69
2023-05-24T23:57:29.890Z,101818.38
2023-05-24T23:59:58.168Z,101827.16
